sensor_id;sensor_type;location;lat;lon;timestamp;temperature;humidity
8436;DHT22;4255;48.730;9.156;2023-05-10T00:01:58;14.70;99.90
8436;DHT22;4255;48.730;9.156;2023-05-10T00:04:24;14.60;99.90
8436;DHT22;4255;48.730;9.156;2023-05-10T00:06:53;14.60;99.90
8436;DHT22;4255;48.730;9.156;2023-05-10T00:09:18;14.50;99.90
8436;DHT22;4255;48.730;9.156;2023-05-10T00:11:44;14.30;99.90
8436;DHT22;4255;48.730;9.156;2023-05-10T00:14:10;14.20;99.90
8436;DHT22;4255;48.730;9.156;2023-05-10T00:16:36;13.90;99.90
8436;DHT22;4255;48.730;9.156;2023-05-10T00:19:02;13.90;99.90
8436;DHT22;4255;48.730;9.156;2023-05-10T00:21:27;13.80;99.90
8436;DHT22;4255;48.730;9.156;2023-05-10T00:23:54;13.70;99.90
8436;DHT22;4255;48.730;9.156;2023-05-10T00:26:20;13.60;99.90
8436;DHT22;4255;48.730;9.156;2023-05-10T00:28:45;13.60;99.90
8436;DHT22;4255;48.730;9.156;2023-05-10T00:31:11;13.60;99.90
8436;DHT22;4255;48.730;9.156;2023-05-10T00:33:36;13.70;99.90
8436;DHT22;4255;48.730;9.156;2023-05-10T00:36:02;13.80;99.90
8436;DHT22;4255;48.730;9.156;2023-05-10T00:38:28;13.90;99.90
8436;DHT22;4255;48.730;9.156;2023-05-10T00:40:54;13.90;99.90
8436;DHT22;4255;48.730;9.156;2023-05-10T00:43:20;13.70;99.90
8436;DHT22;4255;48.730;9.156;2023-05-10T00:45:45;13.50;99.90
8436;DHT22;4255;48.730;9.156;2023-05-10T00:48:11;13.50;99.90
8436;DHT22;4255;48.730;9.156;2023-05-10T00:50:38;13.30;99.90
8436;DHT22;4255;48.730;9.156;2023-05-10T00:53:05;13.30;99.90
8436;DHT22;4255;48.730;9.156;2023-05-10T00:55:31;13.30;99.90
8436;DHT22;4255;48.730;9.156;2023-05-10T00:57:57;13.30;99.90
8436;DHT22;4255;48.730;9.156;2023-05-10T01:00:22;13.30;99.90
8436;DHT22;4255;48.730;9.156;2023-05-10T01:02:48;13.30;99.90
8436;DHT22;4255;48.730;9.156;2023-05-10T01:05:14;13.30;99.90
8436;DHT22;4255;48.730;9.156;2023-05-10T01:07:40;13.30;99.90
8436;DHT22;4255;48.730;9.156;2023-05-10T01:10:07;13.20;99.90
8436;DHT22;4255;48.730;9.156;2023-05-10T01:12:37;13.20;99.90
8436;DHT22;4255;48.730;9.156;2023-05-10T01:15:05;13.10;99.90
8436;DHT22;4255;48.730;9.156;2023-05-10T01:17:31;13.20;99.90
8436;DHT22;4255;48.730;9.156;2023-05-10T01:19:57;13.10;99.90
8436;DHT22;4255;48.730;9.156;2023-05-10T01:28:37;13.10;99.90
8436;DHT22;4255;48.730;9.156;2023-05-10T01:36:05;13.00;99.90
8436;DHT22;4255;48.730;9.156;2023-05-10T01:38:50;13.10;99.90
8436;DHT22;4255;48.730;9.156;2023-05-10T01:44:45;13.20;99.90
8436;DHT22;4255;48.730;9.156;2023-05-10T01:47:18;13.30;99.90
8436;DHT22;4255;48.730;9.156;2023-05-10T01:49:51;13.40;99.90
8436;DHT22;4255;48.730;9.156;2023-05-10T01:52:19;13.50;99.90
8436;DHT22;4255;48.730;9.156;2023-05-10T01:54:55;13.50;99.90
8436;DHT22;4255;48.730;9.156;2023-05-10T01:57:26;13.60;99.90
8436;DHT22;4255;48.730;9.156;2023-05-10T01:59:52;13.40;99.90
8436;DHT22;4255;48.730;9.156;2023-05-10T02:02:20;13.40;99.90
8436;DHT22;4255;48.730;9.156;2023-05-10T02:04:47;13.50;99.90
8436;DHT22;4255;48.730;9.156;2023-05-10T02:07:15;13.50;99.90
8436;DHT22;4255;48.730;9.156;2023-05-10T02:09:44;13.50;99.90
8436;DHT22;4255;48.730;9.156;2023-05-10T02:12:13;13.60;99.90
8436;DHT22;4255;48.730;9.156;2023-05-10T02:14:41;13.60;99.90
8436;DHT22;4255;48.730;9.156;2023-05-10T02:17:08;13.70;99.90
8436;DHT22;4255;48.730;9.156;2023-05-10T02:19:36;13.80;99.90
8436;DHT22;4255;48.730;9.156;2023-05-10T02:22:03;13.90;99.90
8436;DHT22;4255;48.730;9.156;2023-05-10T02:24:29;14.00;99.90
8436;DHT22;4255;48.730;9.156;2023-05-10T02:26:56;14.10;99.90
8436;DHT22;4255;48.730;9.156;2023-05-10T02:29:26;14.20;99.90
8436;DHT22;4255;48.730;9.156;2023-05-10T02:31:54;14.20;99.90
8436;DHT22;4255;48.730;9.156;2023-05-10T02:34:25;14.20;99.90
8436;DHT22;4255;48.730;9.156;2023-05-10T02:36:52;14.20;99.90
8436;DHT22;4255;48.730;9.156;2023-05-10T02:39:19;14.30;99.90
8436;DHT22;4255;48.730;9.156;2023-05-10T02:41:46;14.30;99.90
8436;DHT22;4255;48.730;9.156;2023-05-10T02:44:14;14.40;99.90
8436;DHT22;4255;48.730;9.156;2023-05-10T02:46:40;14.50;99.90
8436;DHT22;4255;48.730;9.156;2023-05-10T02:49:06;14.50;99.90
8436;DHT22;4255;48.730;9.156;2023-05-10T02:51:35;14.40;99.90
8436;DHT22;4255;48.730;9.156;2023-05-10T02:54:09;14.40;99.90
8436;DHT22;4255;48.730;9.156;2023-05-10T02:56:36;14.50;99.90
8436;DHT22;4255;48.730;9.156;2023-05-10T02:59:05;14.50;99.90
8436;DHT22;4255;48.730;9.156;2023-05-10T03:01:31;14.50;99.90
8436;DHT22;4255;48.730;9.156;2023-05-10T03:03:56;14.40;99.90
8436;DHT22;4255;48.730;9.156;2023-05-10T03:06:22;14.20;99.90
8436;DHT22;4255;48.730;9.156;2023-05-10T03:08:48;14.10;99.90
8436;DHT22;4255;48.730;9.156;2023-05-10T03:11:26;14.10;99.90
8436;DHT22;4255;48.730;9.156;2023-05-10T03:14:00;14.10;99.90
8436;DHT22;4255;48.730;9.156;2023-05-10T03:16:34;14.10;99.90
8436;DHT22;4255;48.730;9.156;2023-05-10T03:19:08;14.20;99.90
8436;DHT22;4255;48.730;9.156;2023-05-10T03:21:37;14.20;99.90
8436;DHT22;4255;48.730;9.156;2023-05-10T03:24:07;14.00;99.90
8436;DHT22;4255;48.730;9.156;2023-05-10T03:26:34;13.70;99.90
8436;DHT22;4255;48.730;9.156;2023-05-10T03:29:01;13.80;99.90
8436;DHT22;4255;48.730;9.156;2023-05-10T03:31:27;13.80;99.90
8436;DHT22;4255;48.730;9.156;2023-05-10T03:33:53;13.70;99.90
8436;DHT22;4255;48.730;9.156;2023-05-10T03:36:19;13.60;99.90
8436;DHT22;4255;48.730;9.156;2023-05-10T03:38:45;13.50;99.90
8436;DHT22;4255;48.730;9.156;2023-05-10T03:41:11;13.50;99.90
8436;DHT22;4255;48.730;9.156;2023-05-10T03:43:36;13.50;99.90
8436;DHT22;4255;48.730;9.156;2023-05-10T03:46:05;13.70;99.90
8436;DHT22;4255;48.730;9.156;2023-05-10T03:48:32;13.80;99.90
8436;DHT22;4255;48.730;9.156;2023-05-10T03:50:58;13.90;99.90
8436;DHT22;4255;48.730;9.156;2023-05-10T03:53:24;14.00;99.90
8436;DHT22;4255;48.730;9.156;2023-05-10T03:55:49;13.90;99.90
8436;DHT22;4255;48.730;9.156;2023-05-10T03:58:15;13.90;99.90
8436;DHT22;4255;48.730;9.156;2023-05-10T04:00:41;13.70;99.90
8436;DHT22;4255;48.730;9.156;2023-05-10T04:03:09;13.70;99.90
8436;DHT22;4255;48.730;9.156;2023-05-10T04:05:35;13.70;99.90
8436;DHT22;4255;48.730;9.156;2023-05-10T04:08:02;13.60;99.90
8436;DHT22;4255;48.730;9.156;2023-05-10T04:10:27;13.40;99.90
8436;DHT22;4255;48.730;9.156;2023-05-10T04:12:53;13.40;99.90
8436;DHT22;4255;48.730;9.156;2023-05-10T04:15:19;13.50;99.90
8436;DHT22;4255;48.730;9.156;2023-05-10T04:17:45;13.40;99.90
8436;DHT22;4255;48.730;9.156;2023-05-10T04:20:11;13.50;99.90
8436;DHT22;4255;48.730;9.156;2023-05-10T04:22:36;13.50;99.90
8436;DHT22;4255;48.730;9.156;2023-05-10T04:25:02;13.40;99.90
8436;DHT22;4255;48.730;9.156;2023-05-10T04:27:28;13.40;99.90
8436;DHT22;4255;48.730;9.156;2023-05-10T04:29:53;13.50;99.90
8436;DHT22;4255;48.730;9.156;2023-05-10T04:32:19;13.50;99.90
8436;DHT22;4255;48.730;9.156;2023-05-10T04:34:45;13.60;99.90
8436;DHT22;4255;48.730;9.156;2023-05-10T04:37:11;13.60;99.90
8436;DHT22;4255;48.730;9.156;2023-05-10T04:39:36;13.60;99.90
8436;DHT22;4255;48.730;9.156;2023-05-10T04:42:05;13.60;99.90
8436;DHT22;4255;48.730;9.156;2023-05-10T04:44:34;13.60;99.90
8436;DHT22;4255;48.730;9.156;2023-05-10T04:46:59;13.80;99.90
8436;DHT22;4255;48.730;9.156;2023-05-10T04:49:25;13.80;99.90
8436;DHT22;4255;48.730;9.156;2023-05-10T04:51:51;13.70;99.90
8436;DHT22;4255;48.730;9.156;2023-05-10T04:54:16;13.80;99.90
8436;DHT22;4255;48.730;9.156;2023-05-10T04:56:42;13.70;99.90
8436;DHT22;4255;48.730;9.156;2023-05-10T04:59:07;13.70;99.90
8436;DHT22;4255;48.730;9.156;2023-05-10T05:01:33;13.70;99.90
8436;DHT22;4255;48.730;9.156;2023-05-10T05:03:59;13.80;99.90
8436;DHT22;4255;48.730;9.156;2023-05-10T05:06:25;13.80;99.90
8436;DHT22;4255;48.730;9.156;2023-05-10T05:08:52;14.00;99.90
8436;DHT22;4255;48.730;9.156;2023-05-10T05:11:18;14.00;99.90
8436;DHT22;4255;48.730;9.156;2023-05-10T05:13:44;14.20;99.90
8436;DHT22;4255;48.730;9.156;2023-05-10T05:16:09;14.30;99.90
8436;DHT22;4255;48.730;9.156;2023-05-10T05:18:36;14.50;99.90
8436;DHT22;4255;48.730;9.156;2023-05-10T05:21:01;14.50;99.90
8436;DHT22;4255;48.730;9.156;2023-05-10T05:23:27;14.60;99.90
8436;DHT22;4255;48.730;9.156;2023-05-10T05:25:53;14.70;99.90
8436;DHT22;4255;48.730;9.156;2023-05-10T05:28:20;14.70;99.90
8436;DHT22;4255;48.730;9.156;2023-05-10T05:30:45;14.80;99.90
8436;DHT22;4255;48.730;9.156;2023-05-10T05:33:13;14.90;99.90
8436;DHT22;4255;48.730;9.156;2023-05-10T05:35:39;14.90;99.90
8436;DHT22;4255;48.730;9.156;2023-05-10T05:38:04;15.00;99.90
8436;DHT22;4255;48.730;9.156;2023-05-10T05:40:30;15.10;99.90
8436;DHT22;4255;48.730;9.156;2023-05-10T05:42:56;15.20;99.90
8436;DHT22;4255;48.730;9.156;2023-05-10T05:45:21;15.30;99.90
8436;DHT22;4255;48.730;9.156;2023-05-10T05:47:47;15.10;99.90
8436;DHT22;4255;48.730;9.156;2023-05-10T05:50:12;15.00;99.90
8436;DHT22;4255;48.730;9.156;2023-05-10T05:52:38;14.90;99.90
8436;DHT22;4255;48.730;9.156;2023-05-10T05:55:04;15.00;99.90
8436;DHT22;4255;48.730;9.156;2023-05-10T05:57:30;15.10;99.90
8436;DHT22;4255;48.730;9.156;2023-05-10T05:59:55;15.10;99.90
8436;DHT22;4255;48.730;9.156;2023-05-10T06:02:21;15.20;99.90
8436;DHT22;4255;48.730;9.156;2023-05-10T06:04:47;15.30;99.90
8436;DHT22;4255;48.730;9.156;2023-05-10T06:07:12;15.40;99.90
8436;DHT22;4255;48.730;9.156;2023-05-10T06:09:38;15.50;99.90
8436;DHT22;4255;48.730;9.156;2023-05-10T06:12:03;15.50;99.90
8436;DHT22;4255;48.730;9.156;2023-05-10T06:14:29;15.50;99.90
8436;DHT22;4255;48.730;9.156;2023-05-10T06:16:54;15.50;99.90
8436;DHT22;4255;48.730;9.156;2023-05-10T06:19:20;15.50;99.90
8436;DHT22;4255;48.730;9.156;2023-05-10T06:21:46;15.70;99.90
8436;DHT22;4255;48.730;9.156;2023-05-10T06:24:11;15.70;99.90
8436;DHT22;4255;48.730;9.156;2023-05-10T06:26:37;15.80;99.90
8436;DHT22;4255;48.730;9.156;2023-05-10T06:29:03;15.70;99.90
8436;DHT22;4255;48.730;9.156;2023-05-10T06:31:28;15.60;99.90
8436;DHT22;4255;48.730;9.156;2023-05-10T06:33:54;15.50;99.90
8436;DHT22;4255;48.730;9.156;2023-05-10T06:36:19;15.40;99.90
8436;DHT22;4255;48.730;9.156;2023-05-10T06:38:45;15.50;99.90
8436;DHT22;4255;48.730;9.156;2023-05-10T06:41:10;15.40;99.90
8436;DHT22;4255;48.730;9.156;2023-05-10T06:43:37;15.60;99.90
8436;DHT22;4255;48.730;9.156;2023-05-10T06:46:05;15.70;99.90
8436;DHT22;4255;48.730;9.156;2023-05-10T06:48:31;15.70;99.90
8436;DHT22;4255;48.730;9.156;2023-05-10T06:50:57;15.50;99.90
8436;DHT22;4255;48.730;9.156;2023-05-10T06:53:23;15.40;99.90
8436;DHT22;4255;48.730;9.156;2023-05-10T06:55:49;15.40;99.90
8436;DHT22;4255;48.730;9.156;2023-05-10T06:58:14;15.40;99.90
8436;DHT22;4255;48.730;9.156;2023-05-10T07:00:40;15.20;99.90
8436;DHT22;4255;48.730;9.156;2023-05-10T07:03:09;15.30;99.90
8436;DHT22;4255;48.730;9.156;2023-05-10T07:05:35;15.50;99.90
8436;DHT22;4255;48.730;9.156;2023-05-10T07:08:01;15.60;99.90
8436;DHT22;4255;48.730;9.156;2023-05-10T07:10:30;15.80;99.90
8436;DHT22;4255;48.730;9.156;2023-05-10T07:12:55;16.00;99.90
8436;DHT22;4255;48.730;9.156;2023-05-10T07:15:21;16.10;99.90
8436;DHT22;4255;48.730;9.156;2023-05-10T07:17:47;16.20;99.90
8436;DHT22;4255;48.730;9.156;2023-05-10T07:20:12;16.10;99.90
8436;DHT22;4255;48.730;9.156;2023-05-10T07:22:38;16.10;99.90
8436;DHT22;4255;48.730;9.156;2023-05-10T07:25:04;16.20;99.90
8436;DHT22;4255;48.730;9.156;2023-05-10T07:27:30;16.10;99.90
8436;DHT22;4255;48.730;9.156;2023-05-10T07:29:55;16.40;99.90
8436;DHT22;4255;48.730;9.156;2023-05-10T07:32:22;16.40;99.90
8436;DHT22;4255;48.730;9.156;2023-05-10T07:34:47;16.50;99.90
8436;DHT22;4255;48.730;9.156;2023-05-10T07:37:13;16.50;99.90
8436;DHT22;4255;48.730;9.156;2023-05-10T07:39:38;16.50;99.90
8436;DHT22;4255;48.730;9.156;2023-05-10T07:42:04;16.50;99.90
8436;DHT22;4255;48.730;9.156;2023-05-10T07:44:30;16.50;99.90
8436;DHT22;4255;48.730;9.156;2023-05-10T07:46:56;16.60;99.90
8436;DHT22;4255;48.730;9.156;2023-05-10T07:49:22;16.60;99.90
8436;DHT22;4255;48.730;9.156;2023-05-10T07:51:49;16.70;99.90
8436;DHT22;4255;48.730;9.156;2023-05-10T07:54:15;16.70;99.90
8436;DHT22;4255;48.730;9.156;2023-05-10T07:56:41;16.70;99.90
8436;DHT22;4255;48.730;9.156;2023-05-10T07:59:15;16.60;99.90
8436;DHT22;4255;48.730;9.156;2023-05-10T08:01:41;16.10;99.90
8436;DHT22;4255;48.730;9.156;2023-05-10T08:04:07;16.10;99.90
8436;DHT22;4255;48.730;9.156;2023-05-10T08:06:32;16.00;99.90
8436;DHT22;4255;48.730;9.156;2023-05-10T08:08:58;16.00;99.90
8436;DHT22;4255;48.730;9.156;2023-05-10T08:11:24;16.10;99.90
8436;DHT22;4255;48.730;9.156;2023-05-10T08:13:50;16.30;99.90
8436;DHT22;4255;48.730;9.156;2023-05-10T08:16:17;16.40;99.90
8436;DHT22;4255;48.730;9.156;2023-05-10T08:18:44;16.40;99.90
8436;DHT22;4255;48.730;9.156;2023-05-10T08:21:10;16.50;99.90
8436;DHT22;4255;48.730;9.156;2023-05-10T08:23:36;16.20;99.90
8436;DHT22;4255;48.730;9.156;2023-05-10T08:26:02;16.00;99.90
8436;DHT22;4255;48.730;9.156;2023-05-10T08:28:28;15.90;99.90
8436;DHT22;4255;48.730;9.156;2023-05-10T08:30:53;15.90;99.90
8436;DHT22;4255;48.730;9.156;2023-05-10T08:33:20;16.10;99.90
8436;DHT22;4255;48.730;9.156;2023-05-10T08:35:45;16.20;99.90
8436;DHT22;4255;48.730;9.156;2023-05-10T08:38:11;16.30;99.90
8436;DHT22;4255;48.730;9.156;2023-05-10T08:40:39;16.40;99.90
8436;DHT22;4255;48.730;9.156;2023-05-10T08:43:09;16.70;99.90
8436;DHT22;4255;48.730;9.156;2023-05-10T08:45:43;17.00;99.90
8436;DHT22;4255;48.730;9.156;2023-05-10T08:48:10;17.20;99.90
8436;DHT22;4255;48.730;9.156;2023-05-10T08:50:41;16.90;99.90
8436;DHT22;4255;48.730;9.156;2023-05-10T08:53:10;16.70;99.90
8436;DHT22;4255;48.730;9.156;2023-05-10T08:55:36;16.50;99.90
8436;DHT22;4255;48.730;9.156;2023-05-10T08:58:04;16.50;99.90
8436;DHT22;4255;48.730;9.156;2023-05-10T09:00:30;16.60;99.90
8436;DHT22;4255;48.730;9.156;2023-05-10T09:02:57;16.60;99.90
8436;DHT22;4255;48.730;9.156;2023-05-10T09:05:23;16.50;99.90
8436;DHT22;4255;48.730;9.156;2023-05-10T09:07:49;16.30;99.90
8436;DHT22;4255;48.730;9.156;2023-05-10T09:10:15;16.10;99.90
8436;DHT22;4255;48.730;9.156;2023-05-10T09:12:41;15.90;99.90
8436;DHT22;4255;48.730;9.156;2023-05-10T09:15:09;16.10;99.90
8436;DHT22;4255;48.730;9.156;2023-05-10T09:17:36;16.30;99.90
8436;DHT22;4255;48.730;9.156;2023-05-10T09:20:03;16.50;99.90
8436;DHT22;4255;48.730;9.156;2023-05-10T09:22:33;16.20;99.90
8436;DHT22;4255;48.730;9.156;2023-05-10T09:27:30;15.60;99.90
8436;DHT22;4255;48.730;9.156;2023-05-10T09:29:56;15.50;99.90
8436;DHT22;4255;48.730;9.156;2023-05-10T09:32:39;15.50;99.90
8436;DHT22;4255;48.730;9.156;2023-05-10T09:35:15;15.50;99.90
8436;DHT22;4255;48.730;9.156;2023-05-10T09:37:43;15.60;99.90
8436;DHT22;4255;48.730;9.156;2023-05-10T09:40:19;15.80;99.90
8436;DHT22;4255;48.730;9.156;2023-05-10T09:43:02;16.10;99.90
8436;DHT22;4255;48.730;9.156;2023-05-10T09:45:30;16.40;99.90
8436;DHT22;4255;48.730;9.156;2023-05-10T09:47:57;16.70;93.40
8436;DHT22;4255;48.730;9.156;2023-05-10T09:50:23;17.20;54.10
8436;DHT22;4255;48.730;9.156;2023-05-10T09:52:50;17.50;27.60
8436;DHT22;4255;48.730;9.156;2023-05-10T09:55:24;17.60;1.00
8436;DHT22;4255;48.730;9.156;2023-05-10T09:57:59;17.40;12.90
8436;DHT22;4255;48.730;9.156;2023-05-10T10:00:26;17.40;17.30
8436;DHT22;4255;48.730;9.156;2023-05-10T10:02:59;17.60;1.00
8436;DHT22;4255;48.730;9.156;2023-05-10T10:05:29;17.60;1.00
8436;DHT22;4255;48.730;9.156;2023-05-10T10:07:57;17.60;1.00
8436;DHT22;4255;48.730;9.156;2023-05-10T10:10:24;17.50;1.00
8436;DHT22;4255;48.730;9.156;2023-05-10T10:12:50;17.30;1.00
8436;DHT22;4255;48.730;9.156;2023-05-10T10:15:16;17.20;1.00
8436;DHT22;4255;48.730;9.156;2023-05-10T10:17:43;17.30;1.00
8436;DHT22;4255;48.730;9.156;2023-05-10T10:20:09;17.50;1.00
8436;DHT22;4255;48.730;9.156;2023-05-10T10:22:37;17.60;1.00
8436;DHT22;4255;48.730;9.156;2023-05-10T10:25:04;17.40;1.00
8436;DHT22;4255;48.730;9.156;2023-05-10T10:28:05;17.30;1.00
8436;DHT22;4255;48.730;9.156;2023-05-10T10:30:46;16.80;1.00
8436;DHT22;4255;48.730;9.156;2023-05-10T10:33:40;16.70;1.00
8436;DHT22;4255;48.730;9.156;2023-05-10T10:36:09;17.10;11.20
8436;DHT22;4255;48.730;9.156;2023-05-10T10:41:39;17.50;1.00
8436;DHT22;4255;48.730;9.156;2023-05-10T10:44:35;17.50;1.00
8436;DHT22;4255;48.730;9.156;2023-05-10T10:50:06;17.70;1.00
8436;DHT22;4255;48.730;9.156;2023-05-10T10:52:37;17.40;1.00
8436;DHT22;4255;48.730;9.156;2023-05-10T10:57:55;17.20;1.00
8436;DHT22;4255;48.730;9.156;2023-05-10T11:00:32;16.80;1.00
8436;DHT22;4255;48.730;9.156;2023-05-10T11:03:09;16.00;1.00
8436;DHT22;4255;48.730;9.156;2023-05-10T11:05:41;15.60;31.90
8436;DHT22;4255;48.730;9.156;2023-05-10T11:10:36;15.60;48.80
8436;DHT22;4255;48.730;9.156;2023-05-10T11:13:04;15.50;57.10
8436;DHT22;4255;48.730;9.156;2023-05-10T11:15:38;15.40;1.00
8436;DHT22;4255;48.730;9.156;2023-05-10T11:20:59;15.70;1.00
8436;DHT22;4255;48.730;9.156;2023-05-10T11:23:47;15.60;1.00
8436;DHT22;4255;48.730;9.156;2023-05-10T11:26:13;15.60;1.00
8436;DHT22;4255;48.730;9.156;2023-05-10T11:28:43;15.60;1.00
8436;DHT22;4255;48.730;9.156;2023-05-10T11:31:09;15.50;1.00
8436;DHT22;4255;48.730;9.156;2023-05-10T11:33:52;15.60;1.00
8436;DHT22;4255;48.730;9.156;2023-05-10T11:36:24;15.50;1.00
8436;DHT22;4255;48.730;9.156;2023-05-10T11:38:51;15.30;1.00
8436;DHT22;4255;48.730;9.156;2023-05-10T11:41:18;15.00;1.00
8436;DHT22;4255;48.730;9.156;2023-05-10T11:43:46;15.10;1.00
8436;DHT22;4255;48.730;9.156;2023-05-10T11:46:13;15.10;1.00
8436;DHT22;4255;48.730;9.156;2023-05-10T11:48:40;15.10;1.00
8436;DHT22;4255;48.730;9.156;2023-05-10T11:51:10;14.90;1.00
8436;DHT22;4255;48.730;9.156;2023-05-10T11:53:36;15.00;33.80
8436;DHT22;4255;48.730;9.156;2023-05-10T11:56:09;14.90;19.10
8436;DHT22;4255;48.730;9.156;2023-05-10T11:58:36;15.10;60.90
8436;DHT22;4255;48.730;9.156;2023-05-10T12:01:03;15.30;58.80
8436;DHT22;4255;48.730;9.156;2023-05-10T12:03:30;15.50;1.00
8436;DHT22;4255;48.730;9.156;2023-05-10T12:05:57;15.40;16.10
8436;DHT22;4255;48.730;9.156;2023-05-10T12:08:25;15.50;15.20
8436;DHT22;4255;48.730;9.156;2023-05-10T12:10:51;15.70;1.00
8436;DHT22;4255;48.730;9.156;2023-05-10T12:13:18;15.80;1.30
8436;DHT22;4255;48.730;9.156;2023-05-10T12:15:44;15.80;1.00
8436;DHT22;4255;48.730;9.156;2023-05-10T12:18:11;15.70;4.40
8436;DHT22;4255;48.730;9.156;2023-05-10T12:20:37;16.10;1.00
8436;DHT22;4255;48.730;9.156;2023-05-10T12:23:03;16.30;1.00
8436;DHT22;4255;48.730;9.156;2023-05-10T12:25:32;16.50;1.00
8436;DHT22;4255;48.730;9.156;2023-05-10T12:27:59;16.70;1.00
8436;DHT22;4255;48.730;9.156;2023-05-10T12:30:28;16.90;1.00
8436;DHT22;4255;48.730;9.156;2023-05-10T12:33:09;16.80;1.00
8436;DHT22;4255;48.730;9.156;2023-05-10T12:35:44;16.80;1.00
8436;DHT22;4255;48.730;9.156;2023-05-10T12:38:25;16.70;1.00
8436;DHT22;4255;48.730;9.156;2023-05-10T12:40:52;16.60;1.00
8436;DHT22;4255;48.730;9.156;2023-05-10T12:43:17;17.00;1.00
8436;DHT22;4255;48.730;9.156;2023-05-10T12:45:43;17.00;1.00
8436;DHT22;4255;48.730;9.156;2023-05-10T12:48:13;16.90;1.00
8436;DHT22;4255;48.730;9.156;2023-05-10T12:50:39;16.60;1.00
8436;DHT22;4255;48.730;9.156;2023-05-10T12:53:04;16.60;1.00
8436;DHT22;4255;48.730;9.156;2023-05-10T12:55:30;16.30;1.00
8436;DHT22;4255;48.730;9.156;2023-05-10T12:57:56;16.10;1.00
8436;DHT22;4255;48.730;9.156;2023-05-10T13:00:22;16.10;1.00
8436;DHT22;4255;48.730;9.156;2023-05-10T13:02:47;16.20;1.00
8436;DHT22;4255;48.730;9.156;2023-05-10T13:05:13;16.20;1.00
8436;DHT22;4255;48.730;9.156;2023-05-10T13:07:39;16.30;1.00
8436;DHT22;4255;48.730;9.156;2023-05-10T13:10:05;16.30;1.00
8436;DHT22;4255;48.730;9.156;2023-05-10T13:12:32;16.30;1.00
8436;DHT22;4255;48.730;9.156;2023-05-10T13:14:58;16.40;1.00
8436;DHT22;4255;48.730;9.156;2023-05-10T13:17:25;16.90;1.00
8436;DHT22;4255;48.730;9.156;2023-05-10T13:19:51;17.30;1.00
8436;DHT22;4255;48.730;9.156;2023-05-10T13:22:17;17.30;1.00
8436;DHT22;4255;48.730;9.156;2023-05-10T13:24:42;17.30;1.00
8436;DHT22;4255;48.730;9.156;2023-05-10T13:27:08;17.50;1.00
8436;DHT22;4255;48.730;9.156;2023-05-10T13:29:34;17.60;1.00
8436;DHT22;4255;48.730;9.156;2023-05-10T13:31:59;17.70;1.00
8436;DHT22;4255;48.730;9.156;2023-05-10T13:34:25;17.80;1.00
8436;DHT22;4255;48.730;9.156;2023-05-10T13:36:51;18.00;99.90
8436;DHT22;4255;48.730;9.156;2023-05-10T13:39:18;18.20;99.90
8436;DHT22;4255;48.730;9.156;2023-05-10T13:41:43;18.00;1.00
8436;DHT22;4255;48.730;9.156;2023-05-10T13:44:11;17.80;35.40
8436;DHT22;4255;48.730;9.156;2023-05-10T13:46:37;17.30;99.90
8436;DHT22;4255;48.730;9.156;2023-05-10T13:49:04;17.10;1.00
8436;DHT22;4255;48.730;9.156;2023-05-10T13:51:29;16.90;1.00
8436;DHT22;4255;48.730;9.156;2023-05-10T13:53:57;16.90;1.00
8436;DHT22;4255;48.730;9.156;2023-05-10T13:56:23;17.20;1.00
8436;DHT22;4255;48.730;9.156;2023-05-10T13:58:48;17.60;99.90
8436;DHT22;4255;48.730;9.156;2023-05-10T14:01:14;18.20;1.00
8436;DHT22;4255;48.730;9.156;2023-05-10T14:03:40;18.40;1.00
8436;DHT22;4255;48.730;9.156;2023-05-10T14:06:06;18.40;99.90
8436;DHT22;4255;48.730;9.156;2023-05-10T14:08:33;18.40;1.00
8436;DHT22;4255;48.730;9.156;2023-05-10T14:10:59;18.00;1.00
8436;DHT22;4255;48.730;9.156;2023-05-10T14:13:25;17.80;1.00
8436;DHT22;4255;48.730;9.156;2023-05-10T14:15:52;17.80;10.70
8436;DHT22;4255;48.730;9.156;2023-05-10T14:18:17;17.90;1.00
8436;DHT22;4255;48.730;9.156;2023-05-10T14:20:43;17.70;80.50
8436;DHT22;4255;48.730;9.156;2023-05-10T14:23:09;17.80;99.90
8436;DHT22;4255;48.730;9.156;2023-05-10T14:25:34;17.80;99.90
8436;DHT22;4255;48.730;9.156;2023-05-10T14:28:00;18.00;1.00
8436;DHT22;4255;48.730;9.156;2023-05-10T14:30:26;18.20;27.10
8436;DHT22;4255;48.730;9.156;2023-05-10T14:32:51;18.40;1.00
8436;DHT22;4255;48.730;9.156;2023-05-10T14:35:19;18.40;1.00
8436;DHT22;4255;48.730;9.156;2023-05-10T14:37:45;18.40;99.90
8436;DHT22;4255;48.730;9.156;2023-05-10T14:40:11;18.20;1.00
8436;DHT22;4255;48.730;9.156;2023-05-10T14:42:37;18.30;1.00
8436;DHT22;4255;48.730;9.156;2023-05-10T14:45:04;18.40;1.00
8436;DHT22;4255;48.730;9.156;2023-05-10T14:47:29;18.40;1.00
8436;DHT22;4255;48.730;9.156;2023-05-10T14:49:55;18.30;99.90
8436;DHT22;4255;48.730;9.156;2023-05-10T14:52:21;18.10;1.00
8436;DHT22;4255;48.730;9.156;2023-05-10T14:54:46;18.20;1.00
8436;DHT22;4255;48.730;9.156;2023-05-10T14:57:12;18.30;1.00
8436;DHT22;4255;48.730;9.156;2023-05-10T14:59:38;18.40;1.00
8436;DHT22;4255;48.730;9.156;2023-05-10T15:02:04;18.20;1.00
8436;DHT22;4255;48.730;9.156;2023-05-10T15:04:30;18.10;1.00
8436;DHT22;4255;48.730;9.156;2023-05-10T15:06:55;18.20;99.90
8436;DHT22;4255;48.730;9.156;2023-05-10T15:09:25;18.30;1.00
8436;DHT22;4255;48.730;9.156;2023-05-10T15:11:51;18.40;99.90
8436;DHT22;4255;48.730;9.156;2023-05-10T15:14:16;18.40;99.90
8436;DHT22;4255;48.730;9.156;2023-05-10T15:16:42;18.10;1.00
8436;DHT22;4255;48.730;9.156;2023-05-10T15:19:08;17.90;1.00
8436;DHT22;4255;48.730;9.156;2023-05-10T15:21:33;17.90;1.00
8436;DHT22;4255;48.730;9.156;2023-05-10T15:24:05;18.10;99.90
8436;DHT22;4255;48.730;9.156;2023-05-10T15:26:31;18.30;99.90
8436;DHT22;4255;48.730;9.156;2023-05-10T15:28:56;18.40;99.90
8436;DHT22;4255;48.730;9.156;2023-05-10T15:31:22;18.40;1.00
8436;DHT22;4255;48.730;9.156;2023-05-10T15:33:48;18.50;1.00
8436;DHT22;4255;48.730;9.156;2023-05-10T15:36:13;18.10;99.90
8436;DHT22;4255;48.730;9.156;2023-05-10T15:38:39;18.00;1.00
8436;DHT22;4255;48.730;9.156;2023-05-10T15:41:05;18.20;46.00
8436;DHT22;4255;48.730;9.156;2023-05-10T15:43:30;18.10;1.00
8436;DHT22;4255;48.730;9.156;2023-05-10T15:45:56;18.10;99.90
8436;DHT22;4255;48.730;9.156;2023-05-10T15:48:22;18.10;1.00
8436;DHT22;4255;48.730;9.156;2023-05-10T15:50:48;18.20;1.00
8436;DHT22;4255;48.730;9.156;2023-05-10T15:53:13;18.40;99.90
8436;DHT22;4255;48.730;9.156;2023-05-10T15:55:39;18.60;1.00
8436;DHT22;4255;48.730;9.156;2023-05-10T15:58:04;18.50;1.00
8436;DHT22;4255;48.730;9.156;2023-05-10T16:00:30;18.40;1.00
8436;DHT22;4255;48.730;9.156;2023-05-10T16:02:56;18.20;1.00
8436;DHT22;4255;48.730;9.156;2023-05-10T16:05:21;18.20;1.00
8436;DHT22;4255;48.730;9.156;2023-05-10T16:07:47;18.00;63.50
8436;DHT22;4255;48.730;9.156;2023-05-10T16:10:13;18.00;1.00
8436;DHT22;4255;48.730;9.156;2023-05-10T16:12:39;18.00;99.90
8436;DHT22;4255;48.730;9.156;2023-05-10T16:15:05;17.70;1.00
8436;DHT22;4255;48.730;9.156;2023-05-10T16:17:31;17.60;99.90
8436;DHT22;4255;48.730;9.156;2023-05-10T16:19:57;17.70;1.10
8436;DHT22;4255;48.730;9.156;2023-05-10T16:22:24;17.40;99.90
8436;DHT22;4255;48.730;9.156;2023-05-10T16:24:51;17.30;99.90
8436;DHT22;4255;48.730;9.156;2023-05-10T16:27:18;17.40;1.00
8436;DHT22;4255;48.730;9.156;2023-05-10T16:29:44;17.30;1.00
8436;DHT22;4255;48.730;9.156;2023-05-10T16:32:11;17.50;99.90
8436;DHT22;4255;48.730;9.156;2023-05-10T16:34:36;17.60;99.90
8436;DHT22;4255;48.730;9.156;2023-05-10T16:37:02;17.60;99.90
8436;DHT22;4255;48.730;9.156;2023-05-10T16:39:28;17.70;99.90